Time;durP1;ratioP1;P1;durP2;ratioP2;P2;SDS_P1;SDS_P2;PMS_P1;PMS_P2;Temp;Humidity;BMP_temperature;BMP_pressure;BME280_temperature;BME280_humidity;BME280_pressure;Samples;Min_cycle;Max_cycle;Signal;HPM_P1;HPM_P2
2023/10/29 00:01:52;;;;;;;;;;;;;;;12.16;69.48;96745.00;4963585;28;19923;-78
2023/10/29 00:04:41;;;;;;;;;;;;;;;12.15;69.69;96743.44;4967120;28;20412;-78
2023/10/29 00:07:29;;;;;;;;;;;;;;;12.12;69.53;96738.66;4968181;28;19972;-78
2023/10/29 00:10:18;;;;;;;;;;;;;;;11.95;68.93;96735.13;4968143;28;19928;-78
2023/10/29 00:13:06;;;;;;;;;;;;;;;11.93;68.36;96729.25;4969492;28;19929;-78
2023/10/29 00:15:55;;;;;;;;;;;;;;;11.92;69.50;96724.94;4946554;28;20384;-78
2023/10/29 00:18:43;;;;;;;;;;;;;;;11.93;69.86;96721.09;4966982;28;20351;-78
2023/10/29 00:21:34;;;;;;;;;;;;;;;12.14;69.44;96730.94;4955604;28;19922;-78
2023/10/29 00:24:22;;;;;;;;;;;;;;;12.03;69.23;96738.81;4966058;28;19944;-78
2023/10/29 00:27:12;;;;;;;;;;;;;;;12.13;69.34;96740.25;4970171;28;20262;-78
2023/10/29 00:30:00;;;;;;;;;;;;;;;12.18;69.09;96740.00;4956198;28;19929;-78
2023/10/29 00:32:48;;;;;;;;;;;;;;;12.15;69.01;96729.81;4969076;28;20021;-78
2023/10/29 00:35:36;;;;;;;;;;;;;;;12.18;68.25;96743.50;4970438;28;20022;-78
2023/10/29 00:38:24;;;;;;;;;;;;;;;12.30;68.25;96757.06;4948466;28;19926;-77
2023/10/29 00:41:12;;;;;;;;;;;;;;;12.27;68.86;96751.50;4953648;28;19922;-78
2023/10/29 00:44:02;;;;;;;;;;;;;;;12.25;69.19;96749.16;4955913;28;20279;-78
2023/10/29 00:46:50;;;;;;;;;;;;;;;12.32;69.08;96753.97;4968376;28;19926;-78
2023/10/29 00:49:38;;;;;;;;;;;;;;;12.33;69.39;96755.56;4970631;28;20053;-78
2023/10/29 00:52:26;;;;;;;;;;;;;;;12.28;69.18;96753.09;4968830;28;19929;-78
2023/10/29 00:55:14;;;;;;;;;;;;;;;12.29;69.02;96754.66;4971212;28;19970;-78
2023/10/29 00:58:03;;;;;;;;;;;;;;;12.19;68.96;96739.63;4973258;28;19922;-77
2023/10/29 01:00:52;;;;;;;;;;;;;;;12.27;69.50;96744.13;4968756;28;20382;-78
2023/10/29 01:03:41;;;;;;;;;;;;;;;12.19;69.02;96736.13;4972998;28;19971;-78
2023/10/29 01:06:30;;;;;;;;;;;;;;;11.86;68.42;96720.88;4974172;28;20024;-78
2023/10/29 01:09:18;;;;;;;;;;;;;;;12.09;68.58;96714.84;4971567;28;19930;-77
2023/10/29 01:12:14;;;;;;;;;;;;;;;12.12;68.46;96714.16;4963015;28;19926;-78
2023/10/29 01:15:02;;;;;;;;;;;;;;;12.13;68.38;96711.09;4966460;28;19932;-77
2023/10/29 01:17:52;;;;;;;;;;;;;;;12.23;68.16;96726.91;4950594;28;19929;-78
2023/10/29 01:20:40;;;;;;;;;;;;;;;12.30;68.17;96729.00;4963012;28;19933;-78
2023/10/29 01:23:28;;;;;;;;;;;;;;;12.00;68.58;96713.09;4972729;28;19922;-78
2023/10/29 01:26:17;;;;;;;;;;;;;;;12.09;68.18;96712.13;4964923;28;20458;-78
2023/10/29 01:29:06;;;;;;;;;;;;;;;12.11;68.63;96715.31;4975193;28;19922;-78
2023/10/29 01:31:54;;;;;;;;;;;;;;;12.10;67.83;96713.75;4965672;28;20003;-78
2023/10/29 01:34:43;;;;;;;;;;;;;;;11.95;68.40;96707.91;4969817;28;19922;-78
2023/10/29 01:37:31;;;;;;;;;;;;;;;11.85;68.21;96713.88;4972514;28;20009;-78
2023/10/29 01:40:19;;;;;;;;;;;;;;;11.99;68.33;96706.09;4958290;28;19922;-78
2023/10/29 01:43:08;;;;;;;;;;;;;;;12.18;68.39;96685.53;4969509;28;19922;-78
2023/10/29 01:45:56;;;;;;;;;;;;;;;12.17;68.31;96703.03;4969439;28;19922;-78
2023/10/29 01:48:45;;;;;;;;;;;;;;;12.19;67.62;96711.63;4969763;28;19974;-77
2023/10/29 01:51:35;;;;;;;;;;;;;;;12.20;67.65;96702.34;4967460;28;19929;-78
2023/10/29 01:54:24;;;;;;;;;;;;;;;12.28;68.09;96698.63;4960747;28;20065;-78
2023/10/29 01:57:12;;;;;;;;;;;;;;;12.16;68.36;96699.50;4973897;28;19945;-78
2023/10/29 02:00:00;;;;;;;;;;;;;;;12.05;67.90;96691.06;4954788;28;19937;-78
2023/10/29 02:02:58;;;;;;;;;;;;;;;12.03;68.44;96698.78;4967145;28;19987;-78
2023/10/29 02:05:46;;;;;;;;;;;;;;;11.94;68.49;96700.09;4970180;28;19969;-78
2023/10/29 02:08:36;;;;;;;;;;;;;;;12.08;68.56;96695.00;4970610;28;19929;-78
2023/10/29 02:11:24;;;;;;;;;;;;;;;12.05;68.60;96701.97;4971715;28;19922;-78
2023/10/29 02:14:12;;;;;;;;;;;;;;;11.95;67.96;96686.16;4957126;28;19965;-78
2023/10/29 02:17:00;;;;;;;;;;;;;;;12.07;68.42;96688.78;4965754;28;20420;-78
2023/10/29 02:19:48;;;;;;;;;;;;;;;11.97;68.10;96672.97;4968542;28;19929;-78
2023/10/29 02:22:38;;;;;;;;;;;;;;;11.70;68.72;96679.22;4969865;28;19930;-78
2023/10/29 02:25:26;;;;;;;;;;;;;;;11.72;68.37;96671.53;4970598;28;20384;-78
2023/10/29 02:28:14;;;;;;;;;;;;;;;11.86;68.74;96669.19;4951054;28;20030;-78
2023/10/29 02:31:02;;;;;;;;;;;;;;;11.83;68.42;96667.19;4970030;28;20056;-78
2023/10/29 02:33:50;;;;;;;;;;;;;;;12.03;68.23;96681.66;4972137;28;19922;-78
2023/10/29 02:36:38;;;;;;;;;;;;;;;12.04;67.86;96678.59;4950183;28;19929;-78
2023/10/29 02:39:28;;;;;;;;;;;;;;;12.16;68.31;96683.16;4953421;28;19922;-78
2023/10/29 02:42:17;;;;;;;;;;;;;;;12.23;67.98;96683.34;4963360;28;19941;-78
2023/10/29 02:45:05;;;;;;;;;;;;;;;12.09;67.55;96679.47;4970261;28;20427;-78
2023/10/29 02:47:54;;;;;;;;;;;;;;;12.23;67.83;96690.72;4965602;28;19922;-78
2023/10/29 02:50:42;;;;;;;;;;;;;;;12.18;66.92;96693.69;4955182;28;19953;-78
2023/10/29 02:53:31;;;;;;;;;;;;;;;12.31;66.63;96695.22;4970287;28;20043;-78
2023/10/29 02:56:21;;;;;;;;;;;;;;;12.29;66.15;96701.00;4955721;28;19941;-78
2023/10/29 02:59:09;;;;;;;;;;;;;;;12.20;66.64;96697.66;4957055;28;19922;-78
2023/10/29 03:01:57;;;;;;;;;;;;;;;12.28;66.91;96698.63;4965553;28;19965;-78
2023/10/29 03:04:46;;;;;;;;;;;;;;;12.39;66.30;96701.59;4971220;28;19972;-77
2023/10/29 03:07:34;;;;;;;;;;;;;;;12.42;65.81;96700.91;4948782;28;19922;-78
2023/10/29 03:10:22;;;;;;;;;;;;;;;12.25;66.37;96693.88;4965720;28;20520;-78
2023/10/29 03:13:12;;;;;;;;;;;;;;;12.18;65.86;96689.03;4962577;28;19957;-78
2023/10/29 03:16:02;;;;;;;;;;;;;;;12.30;65.80;96688.16;4968023;28;19941;-78
2023/10/29 03:18:50;;;;;;;;;;;;;;;12.26;66.46;96688.09;4955087;28;19933;-78
2023/10/29 03:21:38;;;;;;;;;;;;;;;12.37;65.92;96685.63;4970784;28;20017;-78
2023/10/29 03:24:26;;;;;;;;;;;;;;;12.08;66.05;96678.69;4972079;28;19928;-78
2023/10/29 03:27:15;;;;;;;;;;;;;;;11.91;66.37;96674.38;4969454;28;19969;-78
2023/10/29 03:30:05;;;;;;;;;;;;;;;11.72;66.66;96663.38;4953357;28;20387;-78
2023/10/29 03:32:53;;;;;;;;;;;;;;;11.77;66.38;96652.19;4964782;28;20005;-78
2023/10/29 03:35:41;;;;;;;;;;;;;;;11.86;67.10;96652.06;4963414;28;19922;-78
2023/10/29 03:38:29;;;;;;;;;;;;;;;11.97;66.68;96656.63;4958784;28;20049;-78
2023/10/29 03:41:21;;;;;;;;;;;;;;;12.02;66.59;96652.88;4958119;28;19933;-78
2023/10/29 03:44:12;;;;;;;;;;;;;;;12.11;66.31;96664.38;4967590;28;19932;-78
2023/10/29 03:47:01;;;;;;;;;;;;;;;12.16;66.33;96668.78;4966530;28;19922;-78
2023/10/29 03:49:49;;;;;;;;;;;;;;;12.04;66.27;96673.16;4969575;28;20507;-77
2023/10/29 03:52:37;;;;;;;;;;;;;;;12.07;66.33;96672.44;4969739;28;19928;-78
2023/10/29 03:55:25;;;;;;;;;;;;;;;11.98;66.46;96663.66;4968894;28;19982;-78
2023/10/29 03:58:13;;;;;;;;;;;;;;;12.07;66.25;96656.13;4971721;28;19922;-78
2023/10/29 04:01:02;;;;;;;;;;;;;;;11.98;65.89;96652.75;4968172;28;19923;-78
2023/10/29 04:03:51;;;;;;;;;;;;;;;12.02;66.05;96650.94;4967453;28;20024;-78
2023/10/29 04:06:40;;;;;;;;;;;;;;;12.05;65.96;96636.63;4971473;28;19929;-78
2023/10/29 04:09:28;;;;;;;;;;;;;;;12.15;65.49;96629.88;4954686;28;19922;-78
2023/10/29 04:12:16;;;;;;;;;;;;;;;12.23;65.19;96623.44;4951796;28;20376;-78
2023/10/29 04:15:08;;;;;;;;;;;;;;;12.30;64.89;96623.63;4968227;28;19922;-78
2023/10/29 04:17:56;;;;;;;;;;;;;;;12.44;64.06;96625.06;4971708;28;19961;-78
2023/10/29 04:20:46;;;;;;;;;;;;;;;12.58;62.74;96620.75;4963846;28;19946;-78
2023/10/29 04:23:34;;;;;;;;;;;;;;;12.34;63.95;96604.63;4966340;28;19930;-78
2023/10/29 04:26:21;;;;;;;;;;;;;;;12.48;63.49;96602.22;4971973;28;19956;-78
2023/10/29 04:29:09;;;;;;;;;;;;;;;12.52;62.68;96599.59;4970242;28;20328;-78
2023/10/29 04:31:57;;;;;;;;;;;;;;;12.38;62.83;96604.72;4973042;28;19922;-78
2023/10/29 04:34:46;;;;;;;;;;;;;;;12.52;62.36;96602.31;4965967;28;19922;-78
2023/10/29 04:37:35;;;;;;;;;;;;;;;12.58;62.22;96601.69;4971410;28;19932;-78
2023/10/29 04:40:23;;;;;;;;;;;;;;;12.48;62.78;96594.06;4971793;28;19921;-78
2023/10/29 04:43:11;;;;;;;;;;;;;;;12.68;61.82;96599.53;4968573;28;20287;-78
2023/10/29 04:46:00;;;;;;;;;;;;;;;12.67;61.46;96598.72;4970810;28;19934;-78
2023/10/29 04:48:48;;;;;;;;;;;;;;;12.62;61.09;96596.28;4968995;28;19930;-78
2023/10/29 04:51:36;;;;;;;;;;;;;;;12.43;61.85;96585.38;4972093;28;20414;-78
2023/10/29 04:54:26;;;;;;;;;;;;;;;12.62;62.33;96587.31;4973988;28;20093;-78
2023/10/29 04:57:14;;;;;;;;;;;;;;;12.63;61.34;96592.44;4964927;28;20033;-78
2023/10/29 05:00:04;;;;;;;;;;;;;;;12.48;61.72;96583.16;4972370;28;19922;-78
2023/10/29 05:02:52;;;;;;;;;;;;;;;12.40;62.09;96597.75;4965277;28;19961;-78
2023/10/29 05:05:40;;;;;;;;;;;;;;;12.45;62.33;96592.03;4970639;28;20012;-78
2023/10/29 05:08:29;;;;;;;;;;;;;;;12.26;62.68;96592.00;4973583;28;19922;-77
2023/10/29 05:11:19;;;;;;;;;;;;;;;12.24;62.42;96597.78;4965802;28;19934;-78
2023/10/29 05:14:07;;;;;;;;;;;;;;;12.14;62.37;96595.59;4963377;28;19999;-78
2023/10/29 05:16:56;;;;;;;;;;;;;;;12.39;61.61;96596.19;4965015;28;19922;-78
2023/10/29 05:19:44;;;;;;;;;;;;;;;12.02;62.45;96577.44;4969306;28;19945;-78
2023/10/29 05:22:32;;;;;;;;;;;;;;;12.26;62.15;96592.78;4968687;28;20030;-78
2023/10/29 05:25:20;;;;;;;;;;;;;;;12.14;62.56;96579.25;4966478;28;20008;-78
2023/10/29 05:28:10;;;;;;;;;;;;;;;12.24;62.66;96575.22;4965572;28;20279;-78
2023/10/29 05:30:58;;;;;;;;;;;;;;;12.15;62.77;96571.91;4969380;28;20008;-78
2023/10/29 05:33:46;;;;;;;;;;;;;;;12.28;62.25;96579.59;4970262;28;19941;-78
2023/10/29 05:36:35;;;;;;;;;;;;;;;12.27;62.40;96577.25;4960020;28;20331;-78
2023/10/29 05:39:23;;;;;;;;;;;;;;;12.22;61.81;96582.94;4973346;28;19931;-78
2023/10/29 05:42:13;;;;;;;;;;;;;;;12.32;62.84;96579.69;4972174;28;19973;-78
2023/10/29 05:45:03;;;;;;;;;;;;;;;12.04;62.72;96569.72;4961281;28;19930;-78
2023/10/29 05:47:51;;;;;;;;;;;;;;;12.36;63.11;96586.00;4971847;28;19922;-78
2023/10/29 05:50:39;;;;;;;;;;;;;;;12.21;62.55;96578.66;4969117;28;20057;-78
2023/10/29 05:53:27;;;;;;;;;;;;;;;12.51;61.82;96581.66;4972741;28;19922;-78
2023/10/29 05:56:15;;;;;;;;;;;;;;;11.98;62.70;96568.38;4972132;28;19939;-78
2023/10/29 05:59:04;;;;;;;;;;;;;;;12.39;61.81;96582.56;4971272;28;19923;-78
2023/10/29 06:01:53;;;;;;;;;;;;;;;12.21;62.08;96578.66;4965090;28;19922;-78
2023/10/29 06:04:41;;;;;;;;;;;;;;;12.50;61.77;96575.41;4970145;28;19922;-78
2023/10/29 06:07:29;;;;;;;;;;;;;;;12.50;61.09;96580.84;4970458;28;20408;-78
2023/10/29 06:10:18;;;;;;;;;;;;;;;12.46;61.10;96577.25;4968350;28;19934;-78
2023/10/29 06:13:07;;;;;;;;;;;;;;;12.56;61.09;96589.53;4972624;28;19922;-78
2023/10/29 06:15:55;;;;;;;;;;;;;;;12.50;61.84;96591.75;4959044;28;19922;-78
2023/10/29 06:18:44;;;;;;;;;;;;;;;12.50;61.79;96608.09;4969698;28;19922;-78
2023/10/29 06:21:33;;;;;;;;;;;;;;;12.47;61.84;96624.38;4970929;28;19922;-78
2023/10/29 06:24:21;;;;;;;;;;;;;;;12.36;61.62;96617.88;4970639;28;19933;-78
2023/10/29 06:27:09;;;;;;;;;;;;;;;12.41;61.69;96621.16;4969926;28;20256;-78
2023/10/29 06:29:57;;;;;;;;;;;;;;;12.40;61.56;96622.25;4968293;28;20028;-79
2023/10/29 06:32:46;;;;;;;;;;;;;;;12.41;61.67;96609.44;4969409;28;20580;-78
2023/10/29 06:35:35;;;;;;;;;;;;;;;12.34;62.03;96612.78;4968098;28;19921;-78
2023/10/29 06:38:23;;;;;;;;;;;;;;;12.39;61.33;96622.63;4962964;28;19922;-78
2023/10/29 06:41:11;;;;;;;;;;;;;;;12.34;61.72;96634.56;4970603;28;19934;-78
2023/10/29 06:43:59;;;;;;;;;;;;;;;12.31;62.40;96640.75;4972846;28;20425;-78
2023/10/29 06:46:47;;;;;;;;;;;;;;;12.33;62.82;96635.72;4965005;28;19922;-78
2023/10/29 06:49:35;;;;;;;;;;;;;;;12.38;62.81;96640.91;4970607;28;20326;-77
2023/10/29 06:52:25;;;;;;;;;;;;;;;12.19;63.21;96638.88;4971163;28;20081;-78
2023/10/29 06:55:13;;;;;;;;;;;;;;;12.41;62.60;96642.13;4971206;28;19961;-78
2023/10/29 06:58:02;;;;;;;;;;;;;;;11.96;63.37;96625.13;4964371;28;19922;-78
2023/10/29 07:00:50;;;;;;;;;;;;;;;12.00;63.31;96638.81;4964394;28;19997;-77
2023/10/29 07:03:39;;;;;;;;;;;;;;;12.17;63.26;96648.56;4963743;28;19930;-78
2023/10/29 07:06:30;;;;;;;;;;;;;;;12.17;62.85;96643.13;4962623;28;20021;-77
2023/10/29 07:09:19;;;;;;;;;;;;;;;12.38;63.20;96665.41;4970267;28;19973;-77
2023/10/29 07:12:08;;;;;;;;;;;;;;;12.12;62.23;96663.22;4966808;28;20074;-77
2023/10/29 07:14:57;;;;;;;;;;;;;;;12.21;62.81;96666.56;4974016;28;20062;-78
2023/10/29 07:17:45;;;;;;;;;;;;;;;12.07;62.86;96672.44;4969929;28;19930;-78
2023/10/29 07:20:33;;;;;;;;;;;;;;;12.45;61.76;96681.13;4966546;28;19929;-78
2023/10/29 07:23:22;;;;;;;;;;;;;;;12.52;62.37;96671.22;4967923;28;19932;-78
2023/10/29 07:26:12;;;;;;;;;;;;;;;12.50;62.80;96662.56;4972301;28;20053;-78
2023/10/29 07:29:00;;;;;;;;;;;;;;;12.48;62.45;96653.97;4974151;28;19978;-77
2023/10/29 07:31:48;;;;;;;;;;;;;;;12.64;61.89;96651.22;4954843;28;20648;-78
2023/10/29 07:34:37;;;;;;;;;;;;;;;12.67;61.47;96666.84;4971353;28;19929;-77
2023/10/29 07:37:24;;;;;;;;;;;;;;;12.38;62.81;96654.53;4961785;28;19930;-78
2023/10/29 07:40:13;;;;;;;;;;;;;;;12.66;61.79;96653.59;4959115;28;19922;-78
2023/10/29 07:43:03;;;;;;;;;;;;;;;12.36;63.08;96645.09;4965763;28;19922;-78
2023/10/29 07:45:51;;;;;;;;;;;;;;;12.56;62.84;96647.53;4967565;28;19932;-78
2023/10/29 07:48:39;;;;;;;;;;;;;;;12.68;63.04;96678.56;4970745;28;19922;-78
2023/10/29 07:51:28;;;;;;;;;;;;;;;12.61;62.16;96694.72;4969366;28;19933;-78
2023/10/29 07:54:17;;;;;;;;;;;;;;;12.56;61.43;96710.19;4969306;28;19922;-78
2023/10/29 07:57:05;;;;;;;;;;;;;;;12.65;62.20;96728.31;4966078;28;21575;-78
2023/10/29 07:59:55;;;;;;;;;;;;;;;12.71;63.11;96729.63;4962438;28;20268;-79
2023/10/29 08:02:43;;;;;;;;;;;;;;;12.75;63.93;96727.78;4974187;28;19930;-79
2023/10/29 08:05:31;;;;;;;;;;;;;;;12.41;64.14;96712.94;4959965;28;19929;-78
2023/10/29 08:08:19;;;;;;;;;;;;;;;12.72;64.73;96706.66;4962123;28;20387;-77
2023/10/29 08:11:07;;;;;;;;;;;;;;;12.82;64.42;96711.56;4969166;28;19929;-78
2023/10/29 08:13:56;;;;;;;;;;;;;;;12.80;63.87;96711.16;4970131;28;19934;-78
2023/10/29 08:16:46;;;;;;;;;;;;;;;12.74;64.11;96721.53;4974418;28;20406;-78
2023/10/29 08:19:34;;;;;;;;;;;;;;;12.74;63.63;96715.28;4965792;28;19965;-77
2023/10/29 08:22:21;;;;;;;;;;;;;;;12.70;64.22;96715.19;4971595;28;19997;-77
2023/10/29 08:25:10;;;;;;;;;;;;;;;12.73;64.30;96728.13;4976413;28;19965;-77
2023/10/29 08:27:58;;;;;;;;;;;;;;;12.76;64.28;96740.25;4968252;28;19926;-78
2023/10/29 08:30:48;;;;;;;;;;;;;;;12.74;64.46;96735.16;4973746;28;19922;-78
2023/10/29 08:33:37;;;;;;;;;;;;;;;12.65;63.71;96731.81;4963650;28;19953;-78
2023/10/29 08:36:25;;;;;;;;;;;;;;;12.76;63.94;96745.69;4972261;28;20380;-78
2023/10/29 08:39:13;;;;;;;;;;;;;;;12.58;64.53;96720.75;4969843;28;20276;-78
2023/10/29 08:42:02;;;;;;;;;;;;;;;12.44;65.29;96704.84;4975647;28;20009;-78
2023/10/29 08:44:54;;;;;;;;;;;;;;;12.41;65.66;96700.13;4974898;28;20369;-77
2023/10/29 08:47:42;;;;;;;;;;;;;;;12.40;65.84;96681.41;4963726;28;19922;-78
2023/10/29 08:50:33;;;;;;;;;;;;;;;12.31;65.58;96662.53;4954821;28;19922;-78
2023/10/29 08:53:21;;;;;;;;;;;;;;;12.50;65.58;96659.84;4973751;28;20372;-78
2023/10/29 08:56:09;;;;;;;;;;;;;;;12.74;65.23;96668.97;4973502;28;20013;-78
2023/10/29 08:58:57;;;;;;;;;;;;;;;12.90;65.46;96677.88;4959410;28;19926;-78
2023/10/29 09:01:45;;;;;;;;;;;;;;;13.05;64.11;96679.78;4970532;28;19934;-78
2023/10/29 09:04:36;;;;;;;;;;;;;;;13.07;63.97;96701.22;4959464;28;20368;-77
2023/10/29 09:07:27;;;;;;;;;;;;;;;13.13;63.01;96705.25;4971518;28;19922;-78
2023/10/29 09:10:15;;;;;;;;;;;;;;;13.22;63.26;96707.81;4964468;28;19922;-78
2023/10/29 09:13:04;;;;;;;;;;;;;;;13.33;62.87;96689.72;4968898;28;19929;-78
2023/10/29 09:15:52;;;;;;;;;;;;;;;13.41;62.65;96705.09;4973425;28;19926;-78
2023/10/29 09:18:40;;;;;;;;;;;;;;;13.50;62.44;96727.50;4960437;28;19944;-78
2023/10/29 09:21:28;;;;;;;;;;;;;;;13.50;62.67;96735.69;4967136;28;20324;-78
2023/10/29 09:24:18;;;;;;;;;;;;;;;13.52;61.89;96736.09;4968590;28;20126;-78
2023/10/29 09:27:06;;;;;;;;;;;;;;;13.64;62.20;96732.47;4967256;28;20008;-79
2023/10/29 09:29:54;;;;;;;;;;;;;;;13.87;61.33;96727.03;4968982;28;20021;-78
2023/10/29 09:32:42;;;;;;;;;;;;;;;14.03;61.00;96727.72;4969078;28;19941;-78
2023/10/29 09:35:32;;;;;;;;;;;;;;;14.35;60.26;96722.84;4956444;28;20003;-78
2023/10/29 09:38:20;;;;;;;;;;;;;;;14.57;59.39;96721.28;4969196;28;19934;-79
2023/10/29 09:41:10;;;;;;;;;;;;;;;14.71;58.82;96719.94;4958887;28;19929;-78
2023/10/29 09:43:59;;;;;;;;;;;;;;;14.87;58.61;96723.31;4971290;28;19928;-78
2023/10/29 09:46:47;;;;;;;;;;;;;;;14.89;56.49;96726.44;4970710;28;20324;-78
2023/10/29 09:49:35;;;;;;;;;;;;;;;14.98;57.44;96737.91;4967087;28;19922;-78
2023/10/29 09:52:24;;;;;;;;;;;;;;;14.85;55.79;96731.84;4962413;28;20402;-77
2023/10/29 09:55:12;;;;;;;;;;;;;;;14.84;55.63;96743.94;4966405;28;20398;-78
2023/10/29 09:58:03;;;;;;;;;;;;;;;14.85;56.08;96739.25;4956800;28;19933;-78
2023/10/29 10:00:51;;;;;;;;;;;;;;;14.88;57.46;96746.75;4972005;28;19922;-78
2023/10/29 10:03:39;;;;;;;;;;;;;;;14.82;55.95;96742.75;4968681;28;20392;-75
2023/10/29 10:06:32;;;;;;;;;;;;;;;14.92;56.08;96753.06;4962179;28;19924;-75
2023/10/29 10:09:21;;;;;;;;;;;;;;;14.89;55.74;96764.72;4955921;28;19940;-75
2023/10/29 10:12:09;;;;;;;;;;;;;;;14.97;55.81;96776.56;4952530;28;19958;-78
2023/10/29 10:15:05;;;;;;;;;;;;;;;14.82;57.25;96770.88;4974906;28;20376;-75
2023/10/29 10:17:57;;;;;;;;;;;;;;;14.84;58.44;96768.56;4972857;28;19929;-77
2023/10/29 10:20:45;;;;;;;;;;;;;;;14.90;56.18;96763.56;4979874;28;20049;-77
2023/10/29 10:23:36;;;;;;;;;;;;;;;15.02;57.04;96763.38;4987605;28;19922;-77
2023/10/29 10:26:28;;;;;;;;;;;;;;;15.10;56.76;96751.38;4970328;28;19922;-73
2023/10/29 10:29:17;;;;;;;;;;;;;;;15.12;56.30;96751.78;4961675;28;21690;-75
2023/10/29 10:32:06;;;;;;;;;;;;;;;15.12;56.93;96748.25;4968882;28;19926;-75
2023/10/29 10:34:56;;;;;;;;;;;;;;;15.15;55.33;96748.31;4967495;28;19942;-75
2023/10/29 10:37:52;;;;;;;;;;;;;;;15.17;55.14;96756.16;4955535;28;19922;-75
2023/10/29 10:40:40;;;;;;;;;;;;;;;15.09;54.09;96755.28;4953951;28;19922;-76
2023/10/29 10:43:29;;;;;;;;;;;;;;;15.20;57.28;96766.38;4966213;28;19937;-76
2023/10/29 10:46:17;;;;;;;;;;;;;;;15.18;56.57;96757.75;4968268;28;19945;-75
2023/10/29 10:49:07;;;;;;;;;;;;;;;15.27;57.93;96752.00;4969484;28;19926;-76
2023/10/29 10:51:55;;;;;;;;;;;;;;;15.33;55.87;96758.72;4964419;28;20261;-75
2023/10/29 10:54:46;;;;;;;;;;;;;;;15.25;55.59;96766.06;4954254;28;20009;-75
2023/10/29 10:57:39;;;;;;;;;;;;;;;15.36;54.88;96763.47;4966615;28;19926;-76
2023/10/29 11:00:27;;;;;;;;;;;;;;;15.38;55.21;96759.19;4959254;28;19923;-76
2023/10/29 11:03:15;;;;;;;;;;;;;;;15.33;55.73;96762.25;4954569;28;19922;-75
2023/10/29 11:06:21;;;;;;;;;;;;;;;15.34;54.13;96763.03;4970739;28;20276;-75
2023/10/29 11:09:12;;;;;;;;;;;;;;;15.05;56.66;96757.16;4964523;28;19934;-75
2023/10/29 11:12:00;;;;;;;;;;;;;;;15.26;57.29;96750.41;4968933;28;19977;-76
2023/10/29 11:15:03;;;;;;;;;;;;;;;15.33;57.13;96759.50;4975774;28;19921;-75
2023/10/29 11:17:52;;;;;;;;;;;;;;;15.30;56.43;96756.75;4953945;28;19934;-75
2023/10/29 11:20:53;;;;;;;;;;;;;;;15.36;56.92;96768.94;4971652;28;19922;-76
2023/10/29 11:23:43;;;;;;;;;;;;;;;15.34;57.19;96769.31;4956908;28;19933;-76
2023/10/29 11:26:31;;;;;;;;;;;;;;;15.21;57.68;96776.16;4966411;28;19973;-75
2023/10/29 11:29:41;;;;;;;;;;;;;;;15.11;57.61;96772.09;4971466;28;19977;-73
2023/10/29 11:32:29;;;;;;;;;;;;;;;15.12;57.30;96770.94;4972813;28;19922;-75
2023/10/29 11:35:22;;;;;;;;;;;;;;;15.12;57.69;96757.25;4974812;28;20353;-76
2023/10/29 11:38:27;;;;;;;;;;;;;;;15.22;59.39;96744.09;4970448;28;20395;-76
2023/10/29 11:41:35;;;;;;;;;;;;;;;15.24;59.95;96730.84;4954452;28;19926;-76
2023/10/29 11:44:24;;;;;;;;;;;;;;;15.28;59.16;96709.78;4972197;28;19949;-77
2023/10/29 11:47:13;;;;;;;;;;;;;;;15.25;59.20;96711.34;4961421;28;19928;-77
2023/10/29 11:50:12;;;;;;;;;;;;;;;15.18;59.03;96711.25;4971074;28;19966;-76
2023/10/29 11:53:00;;;;;;;;;;;;;;;15.30;59.09;96721.16;4963752;28;19922;-76
2023/10/29 11:55:48;;;;;;;;;;;;;;;15.32;59.46;96716.88;4968593;28;20028;-76
2023/10/29 11:58:38;;;;;;;;;;;;;;;15.31;58.25;96720.00;4968054;28;19958;-76
2023/10/29 12:01:26;;;;;;;;;;;;;;;15.32;59.03;96732.50;4967112;28;20002;-76
2023/10/29 12:04:14;;;;;;;;;;;;;;;15.05;58.22;96735.28;4970017;28;19997;-76
2023/10/29 12:07:04;;;;;;;;;;;;;;;15.26;58.77;96761.38;4962881;28;22284;-76
2023/10/29 12:09:59;;;;;;;;;;;;;;;15.26;59.35;96750.41;4947854;28;19957;-76
2023/10/29 12:12:52;;;;;;;;;;;;;;;15.03;59.54;96713.00;4955710;28;19922;-76
2023/10/29 12:15:42;;;;;;;;;;;;;;;14.98;60.37;96701.56;4967618;28;19929;-76
2023/10/29 12:18:29;;;;;;;;;;;;;;;15.06;61.11;96706.75;4968047;28;19922;-76
2023/10/29 12:21:18;;;;;;;;;;;;;;;15.11;61.10;96708.38;4966560;28;19929;-76
2023/10/29 12:24:06;;;;;;;;;;;;;;;15.06;61.45;96714.97;4965809;28;19926;-76
2023/10/29 12:26:56;;;;;;;;;;;;;;;14.65;61.72;96651.13;4962579;28;19977;-76
2023/10/29 12:29:45;;;;;;;;;;;;;;;14.76;62.49;96654.00;4953003;28;19944;-76
2023/10/29 12:32:35;;;;;;;;;;;;;;;14.88;63.41;96678.38;4968447;28;20017;-76
2023/10/29 12:35:34;;;;;;;;;;;;;;;14.95;62.96;96662.06;4969169;28;20276;-77
2023/10/29 12:38:22;;;;;;;;;;;;;;;14.89;62.92;96636.22;4967183;28;19922;-77
2023/10/29 12:41:13;;;;;;;;;;;;;;;14.97;63.26;96643.34;4958223;28;20137;-78
2023/10/29 12:44:01;;;;;;;;;;;;;;;14.90;62.11;96646.75;4965112;28;19923;-78
2023/10/29 12:46:49;;;;;;;;;;;;;;;15.01;62.00;96649.63;4967691;28;20052;-77
2023/10/29 12:49:39;;;;;;;;;;;;;;;14.85;62.82;96635.38;4966133;28;20037;-77
2023/10/29 12:52:27;;;;;;;;;;;;;;;14.81;63.31;96621.66;4964645;28;20061;-76
2023/10/29 12:55:15;;;;;;;;;;;;;;;14.87;62.96;96611.19;4965416;28;20025;-77
2023/10/29 12:58:10;;;;;;;;;;;;;;;14.87;63.07;96611.97;4970491;28;20596;-77
2023/10/29 13:00:59;;;;;;;;;;;;;;;15.02;63.13;96610.22;4965259;28;20268;-76
2023/10/29 13:03:48;;;;;;;;;;;;;;;14.79;62.94;96610.28;4970154;28;19922;-76
2023/10/29 13:06:38;;;;;;;;;;;;;;;14.74;63.51;96596.94;4960498;28;20482;-77
2023/10/29 13:09:28;;;;;;;;;;;;;;;15.00;64.54;96606.25;4963777;28;20013;-76
2023/10/29 13:12:16;;;;;;;;;;;;;;;15.10;63.51;96589.97;4969849;28;20025;-77
2023/10/29 13:15:06;;;;;;;;;;;;;;;15.12;62.45;96576.72;4974894;28;19929;-76
2023/10/29 13:17:54;;;;;;;;;;;;;;;15.18;62.61;96580.72;4962328;28;20372;-76
2023/10/29 13:20:42;;;;;;;;;;;;;;;15.19;62.87;96578.75;4970965;28;19922;-74
2023/10/29 13:23:31;;;;;;;;;;;;;;;15.30;63.43;96576.16;4959090;28;19926;-76
2023/10/29 13:26:19;;;;;;;;;;;;;;;15.19;61.80;96568.59;4970065;28;19972;-76
2023/10/29 13:29:07;;;;;;;;;;;;;;;15.25;62.16;96557.31;4961906;28;20034;-76
2023/10/29 13:31:55;;;;;;;;;;;;;;;15.30;62.25;96565.19;4971392;28;20372;-76
2023/10/29 13:34:44;;;;;;;;;;;;;;;15.37;61.74;96560.56;4956973;28;19926;-76
2023/10/29 13:37:32;;;;;;;;;;;;;;;15.43;61.89;96561.03;4965526;28;19922;-76
2023/10/29 13:40:21;;;;;;;;;;;;;;;15.41;60.85;96563.34;4967720;28;19926;-76
2023/10/29 13:43:09;;;;;;;;;;;;;;;15.48;61.29;96563.41;4956198;28;20304;-76
2023/10/29 13:45:58;;;;;;;;;;;;;;;15.53;61.40;96551.34;4972626;28;19922;-76
2023/10/29 13:48:47;;;;;;;;;;;;;;;15.53;61.29;96549.41;4971290;28;20410;-76
2023/10/29 13:51:36;;;;;;;;;;;;;;;15.53;60.56;96549.41;4951466;28;19922;-76
2023/10/29 13:54:24;;;;;;;;;;;;;;;15.61;61.42;96553.78;4954614;28;19934;-76
2023/10/29 13:57:13;;;;;;;;;;;;;;;15.70;61.00;96546.06;4960380;28;19981;-76
2023/10/29 14:00:02;;;;;;;;;;;;;;;15.69;60.06;96555.44;4967790;28;19922;-76
2023/10/29 14:02:59;;;;;;;;;;;;;;;15.68;59.05;96545.66;4958792;28;20372;-76
2023/10/29 14:05:47;;;;;;;;;;;;;;;15.70;59.31;96557.00;4949362;28;19934;-76
2023/10/29 14:08:35;;;;;;;;;;;;;;;15.70;59.74;96559.75;4951391;28;19922;-76
2023/10/29 14:11:23;;;;;;;;;;;;;;;15.73;59.17;96549.22;4950574;28;19953;-76
2023/10/29 14:14:13;;;;;;;;;;;;;;;15.74;58.99;96573.47;4972972;28;19922;-76
2023/10/29 14:17:04;;;;;;;;;;;;;;;15.61;59.96;96548.31;4970113;28;20312;-76
2023/10/29 14:19:53;;;;;;;;;;;;;;;15.60;59.40;96557.66;4971064;28;19922;-76
2023/10/29 14:22:41;;;;;;;;;;;;;;;15.68;59.15;96558.56;4972964;28;19965;-76
2023/10/29 14:25:29;;;;;;;;;;;;;;;15.71;59.60;96566.81;4969065;28;19945;-76
2023/10/29 14:28:17;;;;;;;;;;;;;;;15.74;59.27;96583.66;4973158;28;19929;-76
2023/10/29 14:31:06;;;;;;;;;;;;;;;15.61;58.63;96581.16;4963841;28;20072;-76
2023/10/29 14:33:55;;;;;;;;;;;;;;;15.52;59.10;96567.00;4971830;28;19923;-75
2023/10/29 14:36:43;;;;;;;;;;;;;;;15.55;59.62;96563.47;4968830;28;20372;-76
2023/10/29 14:39:31;;;;;;;;;;;;;;;15.58;60.03;96565.47;4963978;28;20025;-75
2023/10/29 14:42:20;;;;;;;;;;;;;;;15.59;59.72;96567.06;4955678;28;19930;-75